Time;durP1;ratioP1;P1;durP2;ratioP2;P2;SDS_P1;SDS_P2;PMS_P1;PMS_P2;Temp;Humidity;BMP_temperature;BMP_pressure;BME280_temperature;BME280_humidity;BME280_pressure;Samples;Min_cycle;Max_cycle;Signal;HPM_P1;HPM_P2
2023/04/24 07:33:47;;;;;;;4.78;3.22;;;11.60;99.90;;;;;;4900446;28;1246215;-76
2023/04/24 07:36:16;;;;;;;4.65;2.90;;;11.50;99.90;;;;;;4983776;28;20034;-77
2023/04/24 07:38:43;;;;;;;5.60;2.38;;;11.40;99.90;;;;;;4979772;28;20085;-77
2023/04/24 07:41:08;;;;;;;5.68;2.85;;;11.40;99.90;;;;;;4978998;28;20671;-76
2023/04/24 07:43:35;;;;;;;7.10;4.32;;;11.40;99.90;;;;;;4977055;28;20038;-77
2023/04/24 07:46:01;;;;;;;8.43;4.50;;;11.20;99.90;;;;;;4977824;28;20049;-76
2023/04/24 07:48:27;;;;;;;8.85;4.22;;;11.10;99.90;;;;;;4981773;28;20102;-75
2023/04/24 07:50:53;;;;;;;7.38;4.57;;;11.10;99.90;;;;;;4978992;28;20030;-75
2023/04/24 07:53:18;;;;;;;8.88;5.45;;;10.90;99.90;;;;;;4975208;28;20070;-75
2023/04/24 07:55:44;;;;;;;10.45;6.30;;;10.90;99.90;;;;;;4977611;28;20879;-75
2023/04/24 07:58:10;;;;;;;9.07;5.97;;;10.90;99.90;;;;;;4975144;28;20037;-74
2023/04/24 08:00:35;;;;;;;10.93;6.20;;;11.00;99.90;;;;;;4976758;28;20027;-75
2023/04/24 08:03:01;;;;;;;12.60;8.15;;;10.90;99.90;;;;;;4976165;28;20198;-76
2023/04/24 08:05:28;;;;;;;11.40;8.05;;;10.90;99.90;;;;;;4979204;28;20503;-76
2023/04/24 08:07:54;;;;;;;15.63;8.80;;;10.80;99.90;;;;;;4975026;28;20035;-77
2023/04/24 08:10:21;;;;;;;12.45;8.65;;;10.70;99.90;;;;;;4981075;28;20026;-75
2023/04/24 08:12:47;;;;;;;15.48;9.75;;;10.60;99.90;;;;;;4976364;28;20031;-76
2023/04/24 08:15:13;;;;;;;17.27;9.57;;;10.70;99.90;;;;;;4974728;28;20092;-76
2023/04/24 08:17:38;;;;;;;17.15;10.98;;;10.70;99.90;;;;;;4978087;28;20172;-77
2023/04/24 08:20:05;;;;;;;19.02;11.25;;;10.70;99.90;;;;;;4954595;28;20569;-75
2023/04/24 08:22:31;;;;;;;15.93;11.15;;;10.60;99.90;;;;;;4963946;28;20114;-76
2023/04/24 08:24:59;;;;;;;13.20;8.63;;;10.60;99.90;;;;;;4965084;28;21713;-76
2023/04/24 08:27:26;;;;;;;20.63;11.55;;;10.60;99.90;;;;;;4964469;28;20073;-76
2023/04/24 08:29:53;;;;;;;16.67;10.13;;;10.60;99.90;;;;;;4965514;28;20495;-76
2023/04/24 08:32:19;;;;;;;20.50;11.30;;;10.60;99.90;;;;;;4961322;28;20043;-76
2023/04/24 08:34:44;;;;;;;11.65;6.97;;;10.60;99.90;;;;;;4958397;28;20038;-75
2023/04/24 08:37:10;;;;;;;18.35;10.60;;;10.60;99.90;;;;;;4964575;28;20484;-76
2023/04/24 08:39:36;;;;;;;23.02;11.18;;;10.60;99.90;;;;;;4972061;28;20042;-74
2023/04/24 08:42:07;;;;;;;18.23;11.35;;;10.50;99.90;;;;;;4962451;28;20035;-76
2023/04/24 08:44:34;;;;;;;21.33;11.90;;;10.60;99.90;;;;;;4967323;28;20024;-78
2023/04/24 08:47:02;;;;;;;14.82;9.43;;;10.60;99.90;;;;;;4967916;28;20109;-77
2023/04/24 08:49:29;;;;;;;18.02;10.60;;;10.50;99.90;;;;;;4962378;28;20019;-78
2023/04/24 08:51:54;;;;;;;14.82;10.45;;;10.50;99.90;;;;;;4965486;28;20393;-76
2023/04/24 08:54:21;;;;;;;19.98;11.38;;;10.60;99.90;;;;;;4944758;28;20027;-78
2023/04/24 08:56:48;;;;;;;17.88;9.95;;;10.70;99.90;;;;;;4970096;28;20027;-77
2023/04/24 08:59:15;;;;;;;18.50;10.15;;;10.60;99.90;;;;;;4953800;28;20031;-78
2023/04/24 09:01:41;;;;;;;17.58;10.38;;;10.60;99.90;;;;;;4955491;28;20042;-78
2023/04/24 09:04:12;;;;;;;12.57;7.88;;;10.70;99.90;;;;;;4970311;28;20030;-79
2023/04/24 09:06:40;;;;;;;13.30;7.85;;;10.70;99.90;;;;;;4951000;28;21787;-77
2023/04/24 09:09:05;;;;;;;27.55;15.20;;;10.60;99.90;;;;;;4970040;28;20106;-77
2023/04/24 09:11:34;;;;;;;21.55;14.02;;;10.60;99.90;;;;;;4947752;28;20110;-77
2023/04/24 09:14:01;;;;;;;12.73;6.00;;;10.50;99.90;;;;;;4957382;28;20026;-77
2023/04/24 09:16:29;;;;;;;13.43;5.82;;;10.50;99.90;;;;;;4966328;28;20030;-76
2023/04/24 09:18:55;;;;;;;13.48;5.63;;;10.50;99.90;;;;;;4966709;28;20109;-77
2023/04/24 09:21:23;;;;;;;13.90;6.07;;;10.50;99.90;;;;;;4962004;28;20608;-78
2023/04/24 09:24:03;;;;;;;16.70;6.10;;;10.50;99.90;;;;;;4962569;28;20038;-76
2023/04/24 09:26:34;;;;;;;14.30;6.50;;;10.60;99.90;;;;;;4956021;28;20074;-76
2023/04/24 09:29:00;;;;;;;22.83;8.25;;;10.60;99.90;;;;;;4965981;28;20034;-80
2023/04/24 09:31:29;;;;;;;17.98;5.45;;;10.60;99.90;;;;;;4966825;28;20027;-78
2023/04/24 09:34:00;;;;;;;17.60;5.38;;;10.50;99.90;;;;;;4965352;28;20043;-76
2023/04/24 09:36:39;;;;;;;18.38;5.50;;;10.50;99.90;;;;;;4964287;28;20046;-78
2023/04/24 09:39:15;;;;;;;16.10;5.13;;;10.60;99.90;;;;;;4966991;28;20023;-76
2023/04/24 09:41:49;;;;;;;28.30;8.90;;;10.50;99.90;;;;;;4950492;28;20023;-77
2023/04/24 09:44:16;;;;;;;30.08;13.25;;;10.50;99.90;;;;;;4969470;28;20033;-76
2023/04/24 09:46:44;;;;;;;16.27;4.70;;;10.70;99.90;;;;;;4961590;28;20047;-75
2023/04/24 09:49:14;;;;;;;18.50;4.47;;;10.70;99.90;;;;;;4971058;28;20110;-78
2023/04/24 09:51:40;;;;;;;16.10;3.83;;;10.70;99.90;;;;;;4949296;28;20037;-76
2023/04/24 09:54:18;;;;;;;18.58;4.63;;;10.60;99.90;;;;;;4967054;28;20110;-77
2023/04/24 09:56:49;;;;;;;13.93;3.92;;;10.70;99.90;;;;;;4964671;28;20066;-76
2023/04/24 09:59:17;;;;;;;12.10;4.18;;;10.70;99.90;;;;;;4967974;28;20089;-77
2023/04/24 10:01:44;;;;;;;19.08;5.43;;;10.90;99.90;;;;;;4962942;28;20058;-76
2023/04/24 10:04:18;;;;;;;10.40;3.42;;;10.90;99.90;;;;;;4949464;28;20055;-78
2023/04/24 10:06:44;;;;;;;13.85;4.45;;;11.00;99.90;;;;;;4960715;28;20146;-76
2023/04/24 10:09:13;;;;;;;16.67;3.63;;;11.00;99.90;;;;;;4955927;28;20150;-75
2023/04/24 10:11:45;;;;;;;10.13;3.70;;;11.20;99.90;;;;;;4962244;28;20035;-74
2023/04/24 10:14:18;;;;;;;11.80;3.72;;;11.30;99.90;;;;;;4943353;28;20034;-76
2023/04/24 10:16:46;;;;;;;10.82;2.78;;;11.40;99.90;;;;;;4946138;28;20867;-76
2023/04/24 10:19:13;;;;;;;13.68;3.95;;;11.50;99.90;;;;;;4950043;28;20358;-77
2023/04/24 10:21:42;;;;;;;14.65;3.63;;;11.60;99.90;;;;;;4963291;28;20019;-75
2023/04/24 10:24:12;;;;;;;11.75;3.90;;;11.80;99.90;;;;;;4939777;28;20034;-77
2023/04/24 10:26:39;;;;;;;11.02;3.35;;;12.00;99.90;;;;;;4943451;28;20038;-77
2023/04/24 10:29:09;;;;;;;13.90;3.88;;;12.40;99.70;;;;;;4936570;28;20385;-75
2023/04/24 10:31:36;;;;;;;15.00;3.03;;;12.70;99.00;;;;;;4950837;28;20054;-75
2023/04/24 10:34:02;;;;;;;11.38;3.70;;;13.00;98.20;;;;;;4954619;28;20059;-75
2023/04/24 10:36:32;;;;;;;8.98;3.22;;;13.20;97.80;;;;;;4960589;28;20133;-75
2023/04/24 10:39:00;;;;;;;10.10;3.15;;;13.20;96.60;;;;;;4949376;28;20023;-77
2023/04/24 10:41:29;;;;;;;10.75;3.50;;;13.10;96.30;;;;;;4964200;28;20397;-77
2023/04/24 10:44:06;;;;;;;10.07;3.03;;;12.90;95.40;;;;;;4964553;28;20030;-75
2023/04/24 10:46:32;;;;;;;7.40;2.45;;;12.80;96.20;;;;;;4970134;28;20053;-75
2023/04/24 10:48:58;;;;;;;11.25;2.90;;;12.70;95.90;;;;;;4970239;28;20023;-77
2023/04/24 10:51:42;;;;;;;10.95;2.50;;;12.60;94.50;;;;;;4969097;28;20046;-78
2023/04/24 10:54:22;;;;;;;9.65;2.45;;;12.50;95.50;;;;;;4961648;28;20028;-77
2023/04/24 10:56:47;;;;;;;13.02;3.35;;;12.30;94.80;;;;;;4949245;29;20684;-77
2023/04/24 10:59:24;;;;;;;11.50;2.60;;;12.20;95.20;;;;;;4962406;28;20084;-77
2023/04/24 11:01:57;;;;;;;9.77;2.85;;;12.10;96.00;;;;;;4959936;28;20020;-78
2023/04/24 11:04:31;;;;;;;8.75;2.53;;;12.10;95.20;;;;;;4965963;28;20034;-78
2023/04/24 11:06:57;;;;;;;10.55;2.55;;;12.20;95.90;;;;;;4970603;28;20047;-76
2023/04/24 11:09:32;;;;;;;8.25;2.47;;;12.30;96.20;;;;;;4969963;28;21740;-79
2023/04/24 11:12:07;;;;;;;11.50;2.47;;;12.30;95.90;;;;;;4953949;28;20106;-77
2023/04/24 11:14:59;;;;;;;9.68;2.25;;;12.20;95.60;;;;;;4951817;28;20026;-78
2023/04/24 11:17:39;;;;;;;9.55;2.28;;;12.00;96.00;;;;;;4971306;28;20368;-78
2023/04/24 11:20:11;;;;;;;9.75;1.73;;;11.80;95.50;;;;;;4969845;28;20026;-77
2023/04/24 11:22:39;;;;;;;6.57;2.15;;;11.80;96.40;;;;;;4964363;28;20090;-76
2023/04/24 11:25:06;;;;;;;5.82;1.80;;;11.80;96.70;;;;;;4970527;28;20085;-77
2023/04/24 11:27:39;;;;;;;4.75;1.55;;;11.90;96.40;;;;;;4972147;28;20030;-77
2023/04/24 11:30:06;;;;;;;8.88;1.92;;;12.10;96.60;;;;;;4949684;28;20037;-76
2023/04/24 11:32:47;;;;;;;7.28;1.80;;;12.20;95.90;;;;;;4939069;29;20604;-76
2023/04/24 11:35:17;;;;;;;8.10;1.60;;;12.10;95.40;;;;;;4925710;29;20473;-76
2023/04/24 11:37:45;;;;;;;5.00;1.88;;;12.00;94.50;;;;;;4940994;28;20501;-80
2023/04/24 11:40:13;;;;;;;6.43;2.17;;;12.00;94.80;;;;;;4933593;29;20031;-78
2023/04/24 11:42:40;;;;;;;7.63;1.55;;;;;;;;;;4942535;29;20023;-84
2023/04/24 11:45:10;;;;;;;8.48;1.85;;;12.10;94.70;;;;;;4970943;29;20027;-83
2023/04/24 11:47:36;;;;;;;5.40;1.02;;;12.10;94.90;;;;;;4972490;29;20055;-83
2023/04/24 11:50:03;;;;;;;4.15;1.38;;;12.10;94.30;;;;;;4958991;29;20039;-86
2023/04/24 11:52:30;;;;;;;4.97;1.00;;;12.20;94.90;;;;;;4957249;28;20027;-81
2023/04/24 11:54:56;;;;;;;5.20;1.35;;;12.10;94.40;;;;;;4949924;29;20086;-83
2023/04/24 11:57:33;;;;;;;4.18;1.30;;;12.10;95.20;;;;;;4940877;29;20028;-83
2023/04/24 12:00:01;;;;;;;2.83;0.77;;;12.10;94.20;;;;;;4947920;29;20115;-82
2023/04/24 12:02:27;;;;;;;4.80;1.17;;;11.90;94.30;;;;;;4969483;29;20104;-83
2023/04/24 12:04:56;;;;;;;4.25;1.30;;;11.80;95.20;;;;;;4954770;29;20784;-82
2023/04/24 12:07:24;;;;;;;6.82;1.33;;;11.70;95.30;;;;;;4939567;29;20042;-83
2023/04/24 12:09:57;;;;;;;4.95;1.10;;;11.60;96.10;;;;;;4953820;29;20015;-83
2023/04/24 12:12:27;;;;;;;3.70;1.20;;;11.40;96.80;;;;;;4950119;29;20136;-83
2023/04/24 12:14:56;;;;;;;6.93;1.80;;;11.40;97.60;;;;;;4940847;29;20033;-82
2023/04/24 12:17:28;;;;;;;6.38;1.83;;;11.40;97.70;;;;;;4958009;29;20397;-82
2023/04/24 12:20:00;;;;;;;4.78;1.52;;;11.30;97.80;;;;;;4931783;29;20074;-83
2023/04/24 12:22:26;;;;;;;6.32;1.15;;;11.30;98.20;;;;;;4953849;28;20019;-83
2023/04/24 12:25:05;;;;;;;6.25;1.27;;;11.40;98.70;;;;;;4948484;28;20034;-81
2023/04/24 12:27:33;;;;;;;7.43;1.42;;;11.50;98.70;;;;;;4954590;29;20086;-84
2023/04/24 12:30:01;;;;;;;4.25;1.15;;;11.50;98.30;;;;;;4940025;29;20473;-82
2023/04/24 12:32:27;;;;;;;5.18;1.27;;;11.50;97.80;;;;;;4937770;29;20043;-83
2023/04/24 12:34:54;;;;;;;6.63;1.48;;;11.60;97.50;;;;;;4946883;29;20474;-82
2023/04/24 12:37:20;;;;;;;4.95;1.35;;;11.70;97.00;;;;;;4946748;29;20059;-81
2023/04/24 12:40:08;;;;;;;3.72;1.30;;;11.90;97.10;;;;;;4949399;29;20043;-81
2023/04/24 12:42:35;;;;;;;3.15;1.17;;;12.20;97.10;;;;;;4954635;29;20110;-81
2023/04/24 12:45:06;;;;;;;4.50;1.40;;;12.40;96.00;;;;;;4935233;29;20031;-81
2023/04/24 12:47:33;;;;;;;5.25;1.20;;;12.50;95.40;;;;;;4937847;29;20135;-79
2023/04/24 12:49:59;;;;;;;3.13;1.02;;;12.50;94.30;;;;;;4942573;29;20549;-80
2023/04/24 12:52:26;;;;;;;3.55;1.17;;;12.40;94.70;;;;;;4937124;29;20054;-81
2023/04/24 12:54:58;;;;;;;3.00;1.13;;;12.40;94.70;;;;;;4936299;29;20035;-80
2023/04/24 12:57:25;;;;;;;7.88;1.58;;;12.40;94.90;;;;;;4946679;29;20028;-78
2023/04/24 12:59:52;;;;;;;3.95;1.10;;;12.30;93.90;;;;;;4960127;29;20027;-80
2023/04/24 13:02:18;;;;;;;7.43;1.30;;;12.40;94.70;;;;;;4947315;29;20027;-79
2023/04/24 13:04:47;;;;;;;4.88;1.20;;;12.40;94.90;;;;;;4943950;29;20034;-80
2023/04/24 13:07:14;;;;;;;4.72;1.10;;;12.50;94.30;;;;;;4945607;29;20036;-81
2023/04/24 13:09:40;;;;;;;2.75;0.93;;;12.50;94.20;;;;;;4935278;29;20505;-81
2023/04/24 13:12:07;;;;;;;5.22;1.55;;;12.60;94.00;;;;;;4949254;29;20027;-80
2023/04/24 13:14:33;;;;;;;5.43;1.42;;;12.70;93.80;;;;;;4923405;29;20028;-79
2023/04/24 13:16:58;;;;;;;4.78;1.42;;;12.60;93.90;;;;;;4958337;29;20183;-80
2023/04/24 13:19:26;;;;;;;6.40;1.80;;;12.50;94.30;;;;;;4953617;29;20028;-79
2023/04/24 13:21:52;;;;;;;5.68;1.55;;;12.40;94.20;;;;;;4943048;29;20401;-82
2023/04/24 13:24:18;;;;;;;6.88;1.55;;;12.40;93.70;;;;;;4954930;29;20015;-80
2023/04/24 13:26:44;;;;;;;6.00;1.45;;;12.40;94.20;;;;;;4930290;29;20508;-80
2023/04/24 13:29:10;;;;;;;10.07;2.08;;;12.50;94.70;;;;;;4948503;29;20070;-81
2023/04/24 13:31:35;;;;;;;7.57;2.05;;;12.40;93.30;;;;;;4944286;29;20504;-84
2023/04/24 13:34:02;;;;;;;8.98;2.47;;;12.30;93.30;;;;;;4931696;29;20058;-80
2023/04/24 13:36:28;;;;;;;5.53;2.38;;;12.10;93.40;;;;;;4934981;29;20019;-81
2023/04/24 13:38:54;;;;;;;7.32;1.75;;;12.00;93.70;;;;;;4937424;29;20023;-79
2023/04/24 13:41:20;;;;;;;6.05;1.52;;;12.00;94.00;;;;;;4952685;29;20428;-80
2023/04/24 13:43:47;;;;;;;11.25;3.00;;;12.00;93.70;;;;;;4936004;29;20035;-80
2023/04/24 13:46:12;;;;;;;7.40;2.10;;;12.10;93.90;;;;;;4942431;28;20082;-80
2023/04/24 13:48:38;;;;;;;9.18;2.45;;;12.20;93.90;;;;;;4948801;29;20080;-80
2023/04/24 13:51:04;;;;;;;9.18;3.05;;;12.30;93.60;;;;;;4943650;29;20031;-79
2023/04/24 13:53:29;;;;;;;7.32;1.98;;;12.30;92.90;;;;;;4931716;29;20560;-80
2023/04/24 13:55:57;;;;;;;9.40;2.40;;;12.40;93.90;;;;;;4946645;29;20066;-79
2023/04/24 13:58:23;;;;;;;6.82;2.20;;;12.30;93.90;;;;;;4933132;29;20477;-79
2023/04/24 14:00:49;;;;;;;8.68;2.20;;;12.30;93.30;;;;;;4933402;29;20034;-79
2023/04/24 14:03:14;;;;;;;12.25;2.30;;;12.40;93.30;;;;;;4948900;29;20042;-80
2023/04/24 14:05:40;;;;;;;13.88;3.05;;;12.50;93.00;;;;;;4933581;29;20036;-79
2023/04/24 14:08:06;;;;;;;8.65;2.10;;;12.80;92.40;;;;;;4952519;29;20074;-78
2023/04/24 14:10:31;;;;;;;10.65;2.85;;;13.10;92.50;;;;;;4931549;29;20051;-80
2023/04/24 14:12:57;;;;;;;8.15;2.60;;;13.20;91.20;;;;;;4950708;29;20142;-80
2023/04/24 14:15:24;;;;;;;9.38;2.17;;;13.30;88.90;;;;;;4929011;29;20115;-80
2023/04/24 14:17:50;;;;;;;7.75;1.80;;;13.30;89.40;;;;;;4952474;28;20034;-80
2023/04/24 14:20:16;;;;;;;11.15;2.60;;;13.30;89.80;;;;;;4949197;29;20031;-80
2023/04/24 14:22:41;;;;;;;12.40;2.33;;;13.20;88.30;;;;;;4940194;29;20067;-82
2023/04/24 14:25:08;;;;;;;7.65;2.28;;;13.20;89.30;;;;;;4957339;29;20030;-82
2023/04/24 14:27:34;;;;;;;10.15;2.80;;;13.20;90.00;;;;;;4957564;29;20079;-81
2023/04/24 14:30:00;;;;;;;13.95;3.58;;;13.20;88.60;;;;;;4939087;29;20059;-79
2023/04/24 14:32:26;;;;;;;10.30;3.03;;;13.50;87.30;;;;;;4958514;28;20090;-81
2023/04/24 14:34:52;;;;;;;11.52;2.50;;;13.70;86.40;;;;;;4955401;28;20485;-80
2023/04/24 14:37:19;;;;;;;8.27;2.40;;;13.70;84.40;;;;;;4963056;28;20035;-80
2023/04/24 14:39:45;;;;;;;8.85;2.42;;;13.60;85.50;;;;;;4972752;28;20102;-82
2023/04/24 14:42:11;;;;;;;13.65;2.85;;;13.50;87.20;;;;;;4967255;28;20031;-80
2023/04/24 14:44:37;;;;;;;10.35;2.83;;;13.40;90.30;;;;;;4982588;28;20101;-80
2023/04/24 14:47:04;;;;;;;11.82;2.92;;;13.30;85.40;;;;;;4972627;28;20077;-80
2023/04/24 14:49:29;;;;;;;13.35;3.00;;;13.20;86.00;;;;;;4978144;28;20027;-80
2023/04/24 14:51:55;;;;;;;11.10;2.58;;;13.10;90.10;;;;;;4967126;28;20057;-80
2023/04/24 14:54:23;;;;;;;9.75;2.72;;;13.00;86.80;;;;;;4974534;28;20704;-79
2023/04/24 14:56:49;;;;;;;9.63;2.45;;;13.00;89.80;;;;;;4983960;28;20041;-82
2023/04/24 14:59:20;;;;;;;6.82;1.92;;;13.00;86.40;;;;;;4980191;28;20135;-85
2023/04/24 15:01:46;;;;;;;6.90;2.58;;;13.20;90.70;;;;;;4965397;28;20023;-81
2023/04/24 15:04:12;;;;;;;12.32;3.03;;;13.20;86.90;;;;;;4984745;28;20102;-80
2023/04/24 15:06:37;;;;;;;10.88;2.92;;;13.20;86.10;;;;;;4984469;28;20051;-82
2023/04/24 15:09:03;;;;;;;8.70;2.55;;;13.30;86.30;;;;;;4972900;28;20027;-79
2023/04/24 15:11:28;;;;;;;11.35;2.83;;;13.30;86.60;;;;;;4980024;28;20141;-78
2023/04/24 15:13:55;;;;;;;11.57;3.78;;;13.20;85.20;;;;;;4977032;28;20026;-81
2023/04/24 15:16:21;;;;;;;7.07;2.42;;;13.20;86.70;;;;;;4979350;28;20038;-80
2023/04/24 15:18:46;;;;;;;12.52;3.05;;;13.10;88.30;;;;;;4974466;28;20035;-81
2023/04/24 15:21:13;;;;;;;10.27;3.03;;;13.10;86.40;;;;;;4971607;28;20029;-79
2023/04/24 15:23:39;;;;;;;11.95;3.28;;;13.00;86.30;;;;;;4979018;28;20023;-82
2023/04/24 15:26:05;;;;;;;10.48;3.35;;;12.90;85.50;;;;;;4976932;28;20042;-80
2023/04/24 15:28:31;;;;;;;11.48;2.80;;;12.80;83.60;;;;;;4977035;28;20651;-81
2023/04/24 15:30:58;;;;;;;13.68;3.58;;;12.70;83.80;;;;;;4975656;28;20026;-80
2023/04/24 15:33:23;;;;;;;14.15;3.17;;;12.50;85.00;;;;;;4964676;28;20061;-79
2023/04/24 15:35:50;;;;;;;12.13;3.08;;;12.50;88.60;;;;;;4963414;28;20110;-80
2023/04/24 15:38:16;;;;;;;7.15;2.58;;;12.60;86.60;;;;;;4980290;28;20031;-82
2023/04/24 15:40:42;;;;;;;11.18;3.05;;;12.60;84.30;;;;;;4975547;28;20173;-82
2023/04/24 15:43:07;;;;;;;13.07;3.65;;;12.60;83.80;;;;;;4971297;28;20062;-81
2023/04/24 15:45:35;;;;;;;10.70;2.78;;;12.60;84.50;;;;;;4977152;28;20034;-78
2023/04/24 15:48:00;;;;;;;10.32;3.20;;;12.70;86.40;;;;;;4972997;28;20027;-79
2023/04/24 15:50:26;;;;;;;10.38;3.85;;;12.80;85.60;;;;;;4956295;28;20186;-80
2023/04/24 15:52:54;;;;;;;9.32;3.28;;;12.80;85.70;;;;;;4977811;28;20060;-80
2023/04/24 15:55:20;;;;;;;8.70;3.13;;;12.80;88.90;;;;;;4976665;28;20030;-81
2023/04/24 15:57:45;;;;;;;10.63;3.22;;;12.80;86.90;;;;;;4951791;28;20078;-81
2023/04/24 16:00:12;;;;;;;13.77;4.57;;;12.80;87.90;;;;;;4959036;28;20047;-80
2023/04/24 16:02:38;;;;;;;12.40;3.25;;;12.70;87.90;;;;;;4971009;28;20023;-80
2023/04/24 16:05:06;;;;;;;8.45;3.13;;;12.70;88.50;;;;;;4965189;28;20024;-81
2023/04/24 16:07:34;;;;;;;14.88;7.38;;;12.60;88.70;;;;;;4965002;28;20059;-81
2023/04/24 16:10:00;;;;;;;12.95;6.55;;;12.60;91.00;;;;;;4964496;28;20027;-82
2023/04/24 16:12:27;;;;;;;11.30;4.22;;;12.40;90.00;;;;;;4955622;28;20369;-79
2023/04/24 16:14:53;;;;;;;13.32;4.05;;;12.40;90.50;;;;;;4950477;29;20019;-79
2023/04/24 16:17:19;;;;;;;27.25;14.57;;;12.30;90.20;;;;;;4971242;28;20037;-78
2023/04/24 16:19:46;;;;;;;14.23;5.05;;;12.30;91.80;;;;;;4968866;28;20117;-81
2023/04/24 16:22:13;;;;;;;10.75;3.38;;;12.30;91.50;;;;;;4951773;28;20081;-81
2023/04/24 16:24:38;;;;;;;12.82;5.10;;;12.30;90.60;;;;;;4969797;28;20034;-78
2023/04/24 16:27:05;;;;;;;13.02;4.75;;;12.30;91.30;;;;;;4968879;28;20031;-80
2023/04/24 16:29:32;;;;;;;15.45;3.97;;;12.20;91.70;;;;;;4967608;28;20073;-80
2023/04/24 16:31:57;;;;;;;12.98;4.03;;;12.20;91.30;;;;;;4972993;28;20023;-80
2023/04/24 16:34:24;;;;;;;17.60;5.03;;;12.20;91.60;;;;;;4963551;28;20263;-80
2023/04/24 16:36:50;;;;;;;13.95;4.38;;;12.30;91.60;;;;;;4969532;28;20022;-82
2023/04/24 16:39:18;;;;;;;14.13;4.20;;;12.50;91.60;;;;;;4974239;28;20025;-81
2023/04/24 16:41:44;;;;;;;13.75;4.75;;;12.60;91.50;;;;;;4965214;28;20037;-81
2023/04/24 16:44:10;;;;;;;9.77;3.92;;;12.70;90.90;;;;;;4954915;28;20019;-80
2023/04/24 16:46:36;;;;;;;16.83;5.22;;;12.80;91.20;;;;;;4968882;28;20082;-80
2023/04/24 16:49:02;;;;;;;11.23;3.00;;;12.70;89.00;;;;;;4950103;28;20035;-80
2023/04/24 16:51:28;;;;;;;11.32;3.47;;;12.60;87.30;;;;;;4964991;28;20029;-79
2023/04/24 16:53:54;;;;;;;12.20;2.92;;;12.50;87.80;;;;;;4968481;28;20031;-80
2023/04/24 16:56:20;;;;;;;13.80;4.50;;;12.50;88.10;;;;;;4970224;28;20135;-80
2023/04/24 16:58:45;;;;;;;12.05;3.88;;;12.50;87.40;;;;;;4974519;28;20047;-83
2023/04/24 17:01:11;;;;;;;10.68;3.38;;;12.50;86.30;;;;;;4972882;28;20030;-81
2023/04/24 17:03:37;;;;;;;9.45;3.13;;;12.50;85.10;;;;;;4972755;28;20477;-81
2023/04/24 17:06:03;;;;;;;16.13;4.00;;;12.40;85.00;;;;;;4966328;28;20030;-79
2023/04/24 17:08:31;;;;;;;17.52;3.75;;;12.50;88.30;;;;;;4968887;28;20073;-81
2023/04/24 17:10:57;;;;;;;11.20;3.53;;;12.40;86.00;;;;;;4952291;28;20033;-80
2023/04/24 17:13:23;;;;;;;11.45;4.10;;;12.20;84.70;;;;;;4968587;28;20022;-79
2023/04/24 17:15:49;;;;;;;11.48;3.63;;;12.20;86.30;;;;;;4969516;28;20038;-81
2023/04/24 17:18:16;;;;;;;13.10;3.70;;;12.10;85.30;;;;;;4948986;28;20105;-79
2023/04/24 17:20:42;;;;;;;10.73;3.20;;;11.90;83.90;;;;;;4973409;28;20081;-81
2023/04/24 17:23:10;;;;;;;13.30;3.72;;;11.80;85.20;;;;;;4980084;28;20465;-80
2023/04/24 17:25:37;;;;;;;13.00;3.17;;;11.70;86.90;;;;;;4984489;28;20011;-80
2023/04/24 17:28:20;;;;;;;14.07;4.57;;;11.80;87.20;;;;;;4980565;28;20043;-80
2023/04/24 17:30:46;;;;;;;12.57;3.20;;;11.70;87.50;;;;;;4971401;28;20023;-79
2023/04/24 17:33:12;;;;;;;10.05;3.63;;;11.70;86.20;;;;;;4965740;28;20039;-82
2023/04/24 17:35:41;;;;;;;13.18;4.95;;;11.60;86.80;;;;;;4987541;28;20038;-79
2023/04/24 17:38:08;;;;;;;12.38;3.90;;;11.70;87.80;;;;;;4976472;28;20057;-78
2023/04/24 17:40:33;;;;;;;11.10;4.35;;;11.70;86.70;;;;;;4950876;28;20030;-79
2023/04/24 17:42:59;;;;;;;12.18;3.35;;;11.50;86.70;;;;;;4954197;28;20071;-79
2023/04/24 17:45:28;;;;;;;13.02;4.18;;;11.50;87.00;;;;;;4979543;28;20045;-80
2023/04/24 17:47:55;;;;;;;10.95;4.15;;;11.40;87.60;;;;;;4979170;28;20090;-79
2023/04/24 17:50:21;;;;;;;14.90;4.65;;;11.40;87.50;;;;;;4975953;28;20428;-79
2023/04/24 17:52:46;;;;;;;14.13;3.95;;;11.40;87.90;;;;;;4983109;28;20022;-80
2023/04/24 17:55:13;;;;;;;15.63;3.85;;;11.40;87.50;;;;;;4953646;28;20066;-80
2023/04/24 17:57:39;;;;;;;11.57;4.32;;;11.30;88.20;;;;;;4967282;28;20037;-80
2023/04/24 18:00:06;;;;;;;15.02;4.55;;;11.30;88.40;;;;;;4985991;28;20039;-78
2023/04/24 18:02:35;;;;;;;11.68;4.90;;;11.30;88.30;;;;;;4978903;28;20026;-80
2023/04/24 18:05:01;;;;;;;21.20;8.55;;;11.30;89.00;;;;;;4976935;28;20100;-80
2023/04/24 18:07:26;;;;;;;30.75;17.27;;;11.30;89.20;;;;;;4965788;28;20035;-80
2023/04/24 18:09:55;;;;;;;14.85;8.98;;;11.30;89.20;;;;;;4970144;28;20037;-79
2023/04/24 18:12:27;;;;;;;12.85;4.30;;;11.30;89.80;;;;;;4985215;28;20035;-79
2023/04/24 18:14:53;;;;;;;19.55;4.88;;;11.20;88.90;;;;;;4969775;28;20062;-79
2023/04/24 18:17:18;;;;;;;14.80;5.70;;;11.10;89.40;;;;;;4970381;28;20027;-78
2023/04/24 18:19:46;;;;;;;20.48;10.20;;;11.10;90.00;;;;;;4980581;28;20034;-80
2023/04/24 18:22:12;;;;;;;14.80;6.93;;;11.00;90.70;;;;;;4974253;28;20057;-78
2023/04/24 18:24:38;;;;;;;13.23;4.10;;;10.90;90.30;;;;;;4986197;28;20019;-78
2023/04/24 18:27:04;;;;;;;17.58;5.68;;;10.80;90.40;;;;;;4984068;28;20513;-80
2023/04/24 18:29:33;;;;;;;16.58;5.35;;;10.80;90.80;;;;;;4978065;28;20031;-79
2023/04/24 18:31:58;;;;;;;13.05;5.03;;;10.80;90.70;;;;;;4979581;28;20421;-79
2023/04/24 18:34:25;;;;;;;12.80;4.38;;;10.80;90.80;;;;;;4966874;28;20034;-82
2023/04/24 18:36:51;;;;;;;19.17;5.22;;;10.70;90.60;;;;;;4982211;28;20108;-78
2023/04/24 18:39:16;;;;;;;17.52;5.75;;;10.70;90.70;;;;;;4979459;28;20382;-79
2023/04/24 18:41:42;;;;;;;12.82;4.45;;;10.60;91.00;;;;;;4983351;28;20038;-80
2023/04/24 18:44:08;;;;;;;11.27;4.40;;;10.50;91.30;;;;;;4962242;28;20019;-79
2023/04/24 18:46:40;;;;;;;15.02;4.70;;;10.50;91.30;;;;;;4985859;28;20019;-81
2023/04/24 18:49:05;;;;;;;14.48;3.97;;;10.50;91.40;;;;;;4984993;28;20022;-80
2023/04/24 18:51:32;;;;;;;15.63;4.90;;;10.60;91.40;;;;;;4979814;28;20074;-80
2023/04/24 18:53:59;;;;;;;14.75;4.35;;;10.50;91.40;;;;;;4963563;28;20028;-80
2023/04/24 18:56:25;;;;;;;21.77;6.22;;;10.40;91.80;;;;;;4950324;28;20035;-80
2023/04/24 18:58:58;;;;;;;21.77;6.10;;;10.40;91.90;;;;;;4981001;28;20034;-79
2023/04/24 19:01:26;;;;;;;15.50;4.82;;;10.30;92.00;;;;;;4977743;28;20102;-82
2023/04/24 19:03:55;;;;;;;16.65;5.18;;;10.20;92.30;;;;;;4976856;28;20054;-80
2023/04/24 19:06:21;;;;;;;19.03;6.17;;;10.30;92.30;;;;;;4986613;28;20823;-80
2023/04/24 19:08:46;;;;;;;16.17;4.90;;;10.30;92.40;;;;;;4980822;28;20146;-80
2023/04/24 19:11:13;;;;;;;15.32;5.00;;;10.20;92.50;;;;;;4972823;28;20106;-80
2023/04/24 19:13:39;;;;;;;19.13;5.10;;;10.10;93.00;;;;;;4986022;28;20049;-79
2023/04/24 19:16:04;;;;;;;20.85;5.75;;;10.10;92.90;;;;;;4972505;28;20054;-79
2023/04/24 19:18:31;;;;;;;16.20;5.07;;;10.10;93.10;;;;;;4987049;28;20508;-80
2023/04/24 19:20:58;;;;;;;20.77;5.45;;;10.10;93.30;;;;;;4982255;28;20158;-78
2023/04/24 19:23:24;;;;;;;20.10;5.20;;;10.20;93.50;;;;;;4965344;28;20441;-80
2023/04/24 19:25:50;;;;;;;25.13;5.13;;;10.20;93.40;;;;;;4979673;28;20038;-81
2023/04/24 19:28:16;;;;;;;13.77;4.63;;;10.20;93.30;;;;;;4969082;28;20046;-80
2023/04/24 19:30:45;;;;;;;21.25;5.55;;;10.20;93.50;;;;;;4987048;28;20023;-80
2023/04/24 19:33:11;;;;;;;19.92;5.63;;;10.20;93.80;;;;;;4982971;28;20050;-79
2023/04/24 19:35:37;;;;;;;15.60;4.55;;;10.20;93.80;;;;;;4980242;28;20022;-80
2023/04/24 19:38:06;;;;;;;19.42;4.55;;;10.20;94.00;;;;;;4989222;28;20019;-81
2023/04/24 19:40:34;;;;;;;15.88;4.30;;;10.10;93.90;;;;;;4975449;28;20054;-82
2023/04/24 19:43:00;;;;;;;15.55;4.90;;;10.10;94.30;;;;;;4966097;28;20031;-81
2023/04/24 19:45:25;;;;;;;20.95;4.60;;;10.00;94.30;;;;;;4956599;28;20445;-80
2023/04/24 19:47:51;;;;;;;18.05;4.95;;;10.00;94.30;;;;;;4955337;28;20038;-77
2023/04/24 19:50:18;;;;;;;16.92;5.78;;;10.00;94.40;;;;;;4947950;28;20126;-78
2023/04/24 19:52:44;;;;;;;24.13;7.05;;;10.10;94.60;;;;;;4975018;28;20018;-79
2023/04/24 19:55:09;;;;;;;12.63;3.90;;;10.00;94.50;;;;;;4973824;28;20027;-78
2023/04/24 19:57:35;;;;;;;21.98;5.90;;;10.10;94.80;;;;;;4975716;28;20055;-78
2023/04/24 20:00:04;;;;;;;17.92;5.20;;;10.00;94.80;;;;;;4948553;29;20034;-78
2023/04/24 20:02:30;;;;;;;17.98;5.57;;;10.00;94.80;;;;;;4969223;28;20035;-78
2023/04/24 20:04:55;;;;;;;17.45;4.57;;;10.00;95.00;;;;;;4965748;28;20042;-79
2023/04/24 20:07:21;;;;;;;13.38;4.35;;;9.90;95.10;;;;;;4954712;28;20508;-78
2023/04/24 20:09:47;;;;;;;17.65;4.78;;;9.90;95.10;;;;;;4961457;28;20101;-79
2023/04/24 20:12:12;;;;;;;16.52;4.78;;;9.90;95.10;;;;;;4960865;28;20023;-79
2023/04/24 20:14:46;;;;;;;16.10;4.82;;;9.90;95.30;;;;;;4973378;28;20035;-79